Flight Track Log - Related Links

Times and Time Zones

All times are in EDT time to prevent confusion due to time zone crossing. See the EJA982 flight status page for this flight to view local times or setup timezone preferences in your user account.

Time Position Orientation Groundspeed Altitude Reporting Facility
EDT Latitude Longitude Course Direction KTS MPH feet Rate Location/Type
Wed 08:08:58 AM 41.1000 -73.7667 246° West 206 237 3,000  Level New York TRACON
Wed 08:09:58 AM 41.0833 -73.8500 255° West 225 259 4,400 2,200 Climbing New York TRACON
Wed 08:10:58 AM 41.0667 -73.9333 255° West 270 311 7,400 2,905 Climbing New York TRACON
Wed 08:12:04 AM 41.0000 -74.0333 229° Southwest 289 333 10,500 2,238 Climbing New York TRACON
Wed 08:13:04 AM 40.9500 -74.1333 237° Southwest 336 387 12,100 1,857 Climbing New York TRACON
Wed 08:14:00 AM 40.8860 -74.6421 246° West  Level FlightAware Approximate
Wed 08:14:10 AM 40.9167 -74.2833 254° West 377 434 14,400  Level New York TRACON
Wed 08:15:10 AM 40.9000 -74.4167 261° West 392 451 16,400 1,558 Climbing New York TRACON
Wed 08:15:54 AM 40.8894 -74.5233 263° West 407 468 17,100 412 Climbing New York Center
Wed 08:16:52 AM 40.8728 -74.6542 260° West 447 514 17,100 353 Level New York Center
Wed 08:17:53 AM 40.8458 -74.8336 259° West 452 520 17,800 934 Climbing New York Center
Wed 08:18:54 AM 40.8031 -74.9844 250° West 447 514 19,000 1,462 Climbing New York Center
Wed 08:19:52 AM 40.7581 -75.1325 248° West 447 514 20,700 1,714 Climbing New York Center
Wed 08:20:53 AM 40.7147 -75.2858 250° West 447 514 22,400 1,623 Climbing New York Center
Wed 08:21:54 AM 40.6694 -75.4361 248° West 442 509 24,000 1,587 Climbing New York Center
Wed 08:22:54 AM 40.6239 -75.5861 248° West 442 509 25,600 1,563 Climbing New York Center
Wed 08:23:53 AM 40.5756 -75.7467 248° West 447 514 27,100 1,462 Climbing New York Center
Wed 08:24:53 AM 40.5272 -75.9014 248° West 459 528 28,500 1,289 Climbing New York Center
Wed 08:25:54 AM 40.4792 -76.0481 247° West 472 543 29,700 1,289 Climbing New York Center
Wed 08:26:54 AM 40.4300 -76.2106 248° West 477 549 31,100 1,729 Climbing New York Center
Wed 08:27:52 AM 40.3786 -76.3756 248° West 489 563 33,100 1,627 Climbing New York Center
Wed 08:28:52 AM 40.3331 -76.5406 250° West 489 563 34,300 1,537 Climbing New York Center
Wed 08:29:53 AM 40.2936 -76.7033 252° West 484 557 36,200 1,475 Climbing New York Center
Wed 08:30:54 AM 40.2806 -76.8792 264° West 477 549 37,300 908 Climbing New York Center
Wed 08:31:52 AM 40.2714 -77.0525 266° West 482 555 38,000 356 Climbing New York Center
Wed 08:32:52 AM 40.2617 -77.2367 266° West 495 570 38,000  Level New York Center
Wed 08:34:45 AM 40.2444 -77.5856 266° West 518 596 38,000  Level Cleveland Center
Wed 08:35:45 AM 40.2347 -77.7736 266° West 518 596 38,000  Level Cleveland Center
Wed 08:36:45 AM 40.2244 -77.9589 266° West 518 596 38,000  Level Cleveland Center
Wed 08:37:45 AM 40.2142 -78.1497 266° West 518 596 38,000  Level Cleveland Center
Wed 08:38:45 AM 40.2036 -78.3378 266° West 518 596 38,000  Level Cleveland Center
Wed 08:39:45 AM 40.1925 -78.5231 266° West 518 596 38,000  Level Cleveland Center
Wed 08:40:45 AM 40.1789 -78.7081 265° West 518 596 38,000  Level Cleveland Center
Wed 08:41:45 AM 40.1653 -78.8958 265° West 518 596 38,000  Level Cleveland Center
Wed 08:42:45 AM 40.1658 -79.0833 270° West 518 596 38,000  Level Cleveland Center
Wed 08:43:45 AM 40.1681 -79.2681 271° West 518 596 38,000  Level Cleveland Center
Wed 08:44:45 AM 40.1700 -79.4500 271° West 512 589 38,000  Level Cleveland Center
Wed 08:45:45 AM 40.1717 -79.6347 271° West 512 589 38,000  Level Cleveland Center
Wed 08:46:45 AM 40.1731 -79.8222 271° West 512 589 38,000  Level Cleveland Center
Wed 08:47:45 AM 40.1742 -80.0233 270° West 512 589 38,000  Level Cleveland Center
Wed 08:48:45 AM 40.1750 -80.2108 270° West 512 589 38,000  Level Cleveland Center
Wed 08:49:45 AM 40.1753 -80.3956 270° West 512 589 38,000  Level Cleveland Center
Wed 08:50:45 AM 40.1778 -80.5750 271° West 512 589 38,000 350 Level Cleveland Center
Wed 08:51:45 AM 40.1775 -80.7597 270° West 512 589 38,700 850 Climbing Cleveland Center
Wed 08:52:45 AM 40.1750 -80.9417 269° West 512 589 39,700 494 Climbing Cleveland Center
Wed 08:54:23 AM 40.1733 -81.2161 270° West 508 585 40,000 113 Climbing Indianapolis Center
Wed 08:55:24 AM 40.1719 -81.4078 270° West 519 597 40,000  Level Indianapolis Center
Wed 08:56:26 AM 40.1700 -81.6336 269° West 526 605 40,000  Level Indianapolis Center
Wed 08:57:28 AM 40.1689 -81.8147 270° West 526 605 40,000  Level Indianapolis Center
Wed 08:58:30 AM 40.1669 -82.0078 269° West 526 605 40,000  Level Indianapolis Center
Wed 08:59:32 AM 40.1653 -82.2011 269° West 528 608 40,000  Level Indianapolis Center
Wed 09:00:34 AM 40.1622 -82.3928 269° West 525 604 40,000  Level Indianapolis Center
Wed 09:01:36 AM 40.1586 -82.6161 269° West 525 604 40,000  Level Indianapolis Center
Wed 09:02:37 AM 40.1553 -82.8078 269° West 524 603 40,000  Level Indianapolis Center
Wed 09:03:39 AM 40.1519 -82.9981 269° West 522 601 40,000  Level Indianapolis Center
Wed 09:04:41 AM 40.1483 -83.1864 269° West 518 596 40,000  Level Indianapolis Center
Wed 09:05:43 AM 40.1436 -83.3750 268° West 519 597 40,000  Level Indianapolis Center
Wed 09:06:45 AM 40.1392 -83.5633 268° West 521 600 40,000  Level Indianapolis Center
Wed 09:07:47 AM 40.1336 -83.7836 268° West 521 600 40,000  Level Indianapolis Center
Wed 09:08:49 AM 40.1286 -83.9725 268° West 519 597 40,000  Level Indianapolis Center
Wed 09:09:51 AM 40.1231 -84.1617 268° West 520 598 40,000  Level Indianapolis Center
Wed 09:10:53 AM 40.1172 -84.3492 268° West 513 590 40,000  Level Indianapolis Center
Wed 09:11:55 AM 40.1108 -84.5383 268° West 518 596 40,000  Level Indianapolis Center
Wed 09:12:57 AM 40.1031 -84.7264 267° West 516 594 40,000  Level Indianapolis Center
Wed 09:13:59 AM 40.0964 -84.9272 268° West 519 597 40,000  Level Indianapolis Center
Wed 09:15:01 AM 40.0892 -85.1175 267° West 522 601 40,000  Level Indianapolis Center
Wed 09:16:03 AM 40.0806 -85.3369 267° West 517 595 40,000  Level Indianapolis Center
Wed 09:17:05 AM 40.0728 -85.5258 267° West 520 598 40,000  Level Indianapolis Center
Wed 09:17:29 AM 40.0697 -85.5872 266° West 517 595 40,000  Level Indianapolis Center
Wed 09:18:31 AM 40.0628 -85.7753 267° West 518 596 40,000  Level Indianapolis Center
Wed 09:19:34 AM 40.0528 -85.9936 267° West 516 594 40,000  Level Indianapolis Center
Wed 09:20:36 AM 40.0433 -86.1806 266° West 518 596 40,000  Level Indianapolis Center
Wed 09:20:54 AM 40.0414 -86.2417 268° West 519 597 40,000  Level Chicago Center
Wed 09:21:56 AM 40.0331 -86.4289 267° West 521 600 40,000  Level Chicago Center
Wed 09:22:40 AM 40.0258 -86.5550 266° West 522 601 40,000  Level Indianapolis Center
Wed 09:23:42 AM 40.0156 -86.7436 266° West 523 602 40,000  Level Indianapolis Center
Wed 09:24:44 AM 40.0031 -86.9642 266° West 521 600 40,000  Level Indianapolis Center
Wed 09:25:46 AM 39.9936 -87.1503 266° West 515 593 40,000  Level Indianapolis Center
Wed 09:26:48 AM 39.9831 -87.3358 266° West 512 589 40,000  Level Indianapolis Center
Wed 09:27:50 AM 39.9725 -87.5228 266° West 515 593 40,000  Level Indianapolis Center
Wed 09:28:52 AM 39.9600 -87.7103 265° West 516 594 40,000  Level Indianapolis Center
Wed 09:29:54 AM 39.9497 -87.8972 266° West 517 595 40,000  Level Indianapolis Center
Wed 09:30:13 AM 39.9467 -87.9603 266° West 514 592 40,000  Level Chicago Center
Wed 09:31:15 AM 39.9333 -88.1631 265° West 517 595 40,000  Level Chicago Center
Wed 09:32:17 AM 39.9231 -88.3306 265° West 516 594 40,000  Level Chicago Center
Wed 09:33:00 AM 39.9119 -88.4794 264° West 517 595 40,000  Level Kansas City Center
Wed 09:34:02 AM 39.8983 -88.6678 265° West 519 597 40,000  Level Kansas City Center
Wed 09:35:04 AM 39.8858 -88.8533 265° West 516 594 40,000  Level Kansas City Center
Wed 09:36:06 AM 39.8728 -89.0386 265° West 514 592 40,000  Level Kansas City Center
Wed 09:37:08 AM 39.8561 -89.2606 264° West 512 589 40,000  Level Kansas City Center
Wed 09:38:10 AM 39.8417 -89.4461 264° West 513 590 40,000  Level Kansas City Center
Wed 09:39:12 AM 39.8269 -89.6325 264° West 515 593 40,000  Level Kansas City Center
Wed 09:40:14 AM 39.8128 -89.8183 264° West 515 593 40,000  Level Kansas City Center
Wed 09:41:16 AM 39.7978 -90.0050 264° West 516 594 40,000  Level Kansas City Center
Wed 09:42:18 AM 39.7828 -90.1903 264° West 515 593 40,000  Level Kansas City Center
Wed 09:43:20 AM 39.7672 -90.3761 264° West 516 594 40,000  Level Kansas City Center
Wed 09:44:22 AM 39.7481 -90.5986 264° West 515 593 40,000  Level Kansas City Center
Wed 09:45:24 AM 39.7328 -90.7872 264° West 514 592 40,000  Level Kansas City Center
Wed 09:46:26 AM 39.7167 -90.9692 263° West 512 589 40,000  Level Kansas City Center
Wed 09:47:28 AM 39.6997 -91.1511 263° West 512 589 40,000  Level Kansas City Center
Wed 09:48:30 AM 39.6825 -91.3397 263° West 513 590 40,000  Level Kansas City Center
Wed 09:49:32 AM 39.6664 -91.5214 263° West 510 587 40,000  Level Kansas City Center
Wed 09:50:34 AM 39.6489 -91.7028 263° West 510 587 40,000  Level Kansas City Center
Wed 09:51:36 AM 39.6272 -91.9211 263° West 510 587 40,000  Level Kansas City Center
Wed 09:52:38 AM 39.6106 -92.1019 263° West 509 586 40,000  Level Kansas City Center
Wed 09:53:40 AM 39.5919 -92.2842 263° West 509 586 40,000  Level Kansas City Center
Wed 09:54:42 AM 39.5728 -92.4644 262° West 508 585 40,000  Level Kansas City Center
Wed 09:55:44 AM 39.5547 -92.6453 263° West 507 583 40,000  Level Kansas City Center
Wed 09:56:46 AM 39.5350 -92.8258 262° West 508 585 40,000  Level Kansas City Center
Wed 09:57:48 AM 39.5122 -93.0397 262° West 505 581 40,000  Level Kansas City Center
Wed 09:58:50 AM 39.4933 -93.2200 262° West 506 582 40,000  Level Kansas City Center
Wed 09:59:52 AM 39.4733 -93.3978 262° West 504 580 40,000  Level Kansas City Center
Wed 10:00:54 AM 39.4533 -93.5761 262° West 504 580 40,000  Level Kansas City Center
Wed 10:01:56 AM 39.4328 -93.7578 262° West 501 577 40,000  Level Kansas City Center
Wed 10:02:58 AM 39.4100 -93.9558 262° West 501 577 40,000  Level Kansas City Center
Wed 10:04:00 AM 39.3906 -94.1269 262° West 504 580 40,000  Level Kansas City Center
Wed 10:05:02 AM 39.3669 -94.3247 261° West 501 577 40,000  Level Kansas City Center
Wed 10:06:04 AM 39.3469 -94.4942 261° West 501 577 40,000  Level Kansas City Center
Wed 10:07:06 AM 39.3231 -94.6917 261° West 499 574 40,000  Level Kansas City Center
Wed 10:08:08 AM 39.3019 -94.8608 261° West 499 574 40,000  Level Kansas City Center
Wed 10:09:10 AM 39.2769 -95.0575 261° West 495 570 40,000  Level Kansas City Center
Wed 10:10:12 AM 39.2539 -95.2367 261° West 499 574 40,000  Level Kansas City Center
Wed 10:11:14 AM 39.2297 -95.4244 261° West 495 570 40,000  Level Kansas City Center
Wed 10:12:16 AM 39.2103 -95.5775 261° West 496 571 40,000  Level Kansas City Center
Wed 10:13:18 AM 39.1847 -95.7717 260° West 493 567 40,000  Level Kansas City Center
Wed 10:14:20 AM 39.1619 -95.9386 260° West 493 567 40,000  Level Kansas City Center
Wed 10:15:22 AM 39.1356 -96.1325 260° West 493 567 40,000  Level Kansas City Center
Wed 10:16:24 AM 39.1139 -96.2953 260° West 484 557 40,000  Level Kansas City Center
Wed 10:17:26 AM 39.0883 -96.4858 260° West 483 556 40,000  Level Kansas City Center
Wed 10:18:28 AM 39.0636 -96.6453 259° West 477 549 40,000  Level Kansas City Center
Wed 10:19:30 AM 39.0375 -96.8347 260° West 479 551 40,000  Level Kansas City Center
Wed 10:20:32 AM 39.0139 -96.9956 259° West 480 552 40,000  Level Kansas City Center
Wed 10:21:34 AM 38.9897 -97.1858 261° West 482 555 40,000  Level Kansas City Center
Wed 10:22:36 AM 38.9683 -97.3283 259° West 478 550 40,000  Level Kansas City Center
Wed 10:23:38 AM 38.9383 -97.5325 259° West 476 548 40,000  Level Kansas City Center
Wed 10:24:40 AM 38.9069 -97.6878 255° West 469 540 40,000  Level Kansas City Center
Wed 10:25:42 AM 38.8569 -97.8450 248° West 472 543 40,000  Level Kansas City Center
Wed 10:26:44 AM 38.8078 -98.0011 248° West 474 545 40,000  Level Kansas City Center
Wed 10:27:46 AM 38.7586 -98.1558 248° West 471 542 40,000  Level Kansas City Center
Wed 10:28:48 AM 38.7011 -98.3439 249° West 477 549 40,000  Level Kansas City Center
Wed 10:29:50 AM 38.6522 -98.4978 248° West 472 543 40,000  Level Kansas City Center
Wed 10:30:52 AM 38.6028 -98.6547 248° West 476 548 40,000  Level Kansas City Center
Wed 10:31:54 AM 38.5539 -98.8086 248° West 471 542 40,000  Level Kansas City Center
Wed 10:32:56 AM 38.5050 -98.9606 248° West 466 536 40,000  Level Kansas City Center
Wed 10:33:58 AM 38.4556 -99.1117 247° West 463 533 40,000  Level Kansas City Center
Wed 10:35:00 AM 38.3981 -99.2931 248° West 462 532 40,000  Level Kansas City Center
Wed 10:36:02 AM 38.3494 -99.4431 248° West 461 531 40,000  Level Kansas City Center
Wed 10:37:04 AM 38.2992 -99.5931 247° West 462 532 40,000  Level Kansas City Center
Wed 10:38:06 AM 38.2447 -99.7619 248° West 462 532 40,000  Level Kansas City Center
Wed 10:39:08 AM 38.1961 -99.9039 246° West 460 529 40,000  Level Kansas City Center
Wed 10:40:10 AM 38.1414 -100.0703 247° West 458 527 40,000  Level Kansas City Center
Wed 10:41:12 AM 38.0939 -100.2111 247° West 455 524 40,000  Level Kansas City Center
Wed 10:42:15 AM 38.0383 -100.3775 247° West 458 527 40,000  Level Kansas City Center
Wed 10:43:17 AM 37.9900 -100.5181 246° West 457 526 40,000  Level Kansas City Center
Wed 10:44:19 AM 37.9350 -100.6811 247° West 454 522 40,000  Level Kansas City Center
Wed 10:45:21 AM 37.8886 -100.8208 247° West 454 522 40,000  Level Kansas City Center
Wed 10:46:23 AM 37.8353 -100.9831 247° West 454 522 40,000  Level Kansas City Center
Wed 10:47:25 AM 37.7906 -101.1228 248° West 455 524 40,000  Level Kansas City Center
Wed 10:48:27 AM 37.7378 -101.2858 248° West 453 521 40,000  Level Kansas City Center
Wed 10:49:29 AM 37.6914 -101.4250 247° West 452 520 40,000  Level Kansas City Center
Wed 10:50:31 AM 37.6389 -101.5878 248° West 450 518 40,000  Level Kansas City Center
Wed 10:51:33 AM 37.5914 -101.7272 247° West 452 520 40,000  Level Kansas City Center
Wed 10:52:35 AM 37.5381 -101.8931 248° West 456 525 40,000  Level Kansas City Center
Wed 10:53:27 AM 37.4972 -102.0103 246° West 456 525 40,000  Level Albuquerque Center
Wed 10:54:29 AM 37.4428 -102.1744 247° West 457 526 40,000  Level Albuquerque Center
Wed 10:55:31 AM 37.3964 -102.3144 247° West 455 524 40,000  Level Albuquerque Center
Wed 10:56:33 AM 37.3389 -102.4775 246° West 456 525 40,000  Level Albuquerque Center
Wed 10:57:35 AM 37.2936 -102.6164 248° West 453 521 40,000  Level Albuquerque Center
Wed 10:58:37 AM 37.2364 -102.7769 246° West 451 519 40,000  Level Albuquerque Center
Wed 10:59:39 AM 37.1572 -102.9042 232° Southwest 452 520 40,000  Level Albuquerque Center
Wed 11:00:41 AM 37.0733 -103.0222 228° Southwest 451 519 40,000  Level Albuquerque Center
Wed 11:01:43 AM 36.9894 -103.1414 229° Southwest 451 519 40,000  Level Albuquerque Center
Wed 11:02:45 AM 36.9058 -103.2617 229° Southwest 453 521 40,000  Level Albuquerque Center
Wed 11:03:47 AM 36.8211 -103.3800 228° Southwest 453 521 40,000  Level Albuquerque Center
Wed 11:04:49 AM 36.7375 -103.4986 229° Southwest 453 521 40,000  Level Albuquerque Center
Wed 11:05:51 AM 36.6514 -103.6183 228° Southwest 458 527 40,000  Level Albuquerque Center
Wed 11:06:53 AM 36.5517 -103.7583 228° Southwest 460 529 40,000  Level Albuquerque Center
Wed 11:07:55 AM 36.4658 -103.8792 229° Southwest 463 533 40,000  Level Albuquerque Center
Wed 11:08:58 AM 36.3800 -103.9983 228° Southwest 460 529 40,000  Level Albuquerque Center
Wed 11:10:00 AM 36.2931 -104.1169 228° Southwest 461 531 40,000  Level Albuquerque Center
Wed 11:11:02 AM 36.2061 -104.2369 228° Southwest 463 533 40,000  Level Albuquerque Center
Wed 11:12:04 AM 36.1203 -104.3544 228° Southwest 460 529 40,000  Level Albuquerque Center
Wed 11:13:06 AM 36.0192 -104.4931 228° Southwest 461 531 40,000  Level Albuquerque Center
Wed 11:14:08 AM 35.9317 -104.6114 228° Southwest 464 534 40,000  Level Albuquerque Center
Wed 11:15:10 AM 35.8456 -104.7286 228° Southwest 462 532 40,000  Level Albuquerque Center
Wed 11:16:12 AM 35.7575 -104.8475 228° Southwest 465 535 40,000  Level Albuquerque Center
Wed 11:17:14 AM 35.6708 -104.9661 228° Southwest 464 534 40,000  Level Albuquerque Center
Wed 11:18:16 AM 35.5808 -105.0850 227° Southwest 470 541 40,000  Level Albuquerque Center
Wed 11:19:18 AM 35.4781 -105.2236 228° Southwest 469 540 40,000  Level Albuquerque Center
Wed 11:20:20 AM 35.3900 -105.3408 227° Southwest 466 536 40,000  Level Albuquerque Center
Wed 11:21:22 AM 35.3025 -105.4575 227° Southwest 464 534 40,000  Level Albuquerque Center
Wed 11:22:24 AM 35.2147 -105.5717 227° Southwest 460 529 40,000  Level Albuquerque Center
Wed 11:23:26 AM 35.1292 -105.6875 228° Southwest 457 526 40,000  Level Albuquerque Center
Wed 11:24:28 AM 35.0419 -105.8028 227° Southwest 458 527 40,000  Level Albuquerque Center
Wed 11:25:30 AM 34.9433 -105.9306 227° Southwest 462 532 40,000  Level Albuquerque Center
Wed 11:26:32 AM 34.8544 -106.0472 227° Southwest 466 536 40,000  Level Albuquerque Center
Wed 11:27:34 AM 34.7567 -106.1717 226° Southwest 471 542 40,000  Level Albuquerque Center
Wed 11:28:36 AM 34.6736 -106.2817 227° Southwest 472 543 40,000  Level Albuquerque Center
Wed 11:29:38 AM 34.5825 -106.3986 227° Southwest 472 543 40,000  Level Albuquerque Center
Wed 11:30:41 AM 34.4906 -106.5156 226° Southwest 475 547 40,000  Level Albuquerque Center
Wed 11:31:43 AM 34.4000 -106.6303 226° Southwest 471 542 40,000  Level Albuquerque Center
Wed 11:32:45 AM 34.2897 -106.7711 227° Southwest 478 550 40,000  Level Albuquerque Center
Wed 11:33:47 AM 34.1981 -106.8919 227° Southwest 484 557 40,000 -48 Level Albuquerque Center
Wed 11:34:49 AM 34.1067 -107.0092 227° Southwest 484 557 39,900  Descending Albuquerque Center
Wed 11:35:51 AM 34.0153 -107.1242 226° Southwest 481 554 40,000 48 Climbing Albuquerque Center
Wed 11:36:53 AM 33.9239 -107.2389 226° Southwest 477 549 40,000  Level Albuquerque Center
Wed 11:37:55 AM 33.8128 -107.3775 226° Southwest 480 552 40,000  Level Albuquerque Center
Wed 11:38:57 AM 33.7200 -107.4950 227° Southwest 485 558 40,000  Level Albuquerque Center
Wed 11:39:59 AM 33.6269 -107.6092 226° Southwest 483 556 40,000  Level Albuquerque Center
Wed 11:41:01 AM 33.5339 -107.7256 226° Southwest 484 557 40,000  Level Albuquerque Center
Wed 11:42:03 AM 33.4394 -107.8419 226° Southwest 488 562 40,000  Level Albuquerque Center
Wed 11:43:05 AM 33.3458 -107.9589 226° Southwest 489 563 40,000 -968 Level Albuquerque Center
Wed 11:44:07 AM 33.2331 -108.0961 226° Southwest 485 558 38,000 -1,790 Descending Albuquerque Center
Wed 11:45:09 AM 33.1458 -108.2036 226° Southwest 487 560 36,300 -1,805 Descending Albuquerque Center
Wed 11:46:10 AM 33.0492 -108.3217 226° Southwest 494 568 34,300 -1,122 Descending Albuquerque Center
Wed 11:47:12 AM 32.9508 -108.4419 226° Southwest 503 579 34,000 -242 Descending Albuquerque Center
Wed 11:48:14 AM 32.8303 -108.5869 225° Southwest 510 587 33,800 -919 Descending Albuquerque Center
Wed 11:49:16 AM 32.7319 -108.7078 226° Southwest 509 586 32,100 -1,790 Descending Albuquerque Center
Wed 11:50:18 AM 32.6681 -108.8578 243° Southwest 511 588 30,100 -1,016 Descending Albuquerque Center
Wed 11:51:20 AM 32.6153 -109.0153 248° West 512 589 30,000 -48 Descending Albuquerque Center
Wed 11:52:22 AM 32.5633 -109.1703 248° West 509 586 30,000  Level Albuquerque Center
Wed 11:53:24 AM 32.5097 -109.3253 248° West 510 587 30,000 -968 Level Albuquerque Center
Wed 11:54:26 AM 32.4467 -109.5092 248° West 508 585 28,000 -2,226 Descending Albuquerque Center
Wed 11:55:28 AM 32.3944 -109.6575 247° West 498 573 25,400 -2,468 Descending Albuquerque Center
Wed 11:56:30 AM 32.3436 -109.8014 247° West 484 557 22,900 -2,419 Descending Albuquerque Center
Wed 11:57:32 AM 32.3072 -109.9447 253° West 472 543 20,400 -2,400 Descending Albuquerque Center
Wed 11:58:35 AM 32.2933 -110.0878 263° West 448 516 17,900 -2,606 Descending Albuquerque Center
Wed 11:59:11 AM 32.2753 -110.1942 259° West 425 489 16,100 -2,710 Descending Albuquerque Center
Wed 11:59:37 AM 32.2692 -110.2489 262° West 425 489 15,100 -2,400 Descending Albuquerque Center
Wed 12:00:06 PM 32.2592 -110.3047 258° West 409 471 13,900 -2,129 Descending Albuquerque Center
Wed 12:00:39 PM 32.2658 -110.3600 278° West 401 461 12,900 -2,557 Descending Albuquerque Center
Wed 12:01:07 PM 32.2736 -110.4419 276° West 392 451 11,300 -1,869 Descending Albuquerque Center
Wed 12:01:40 PM 32.2817 -110.5069 278° West 380 437 11,000 -295 Descending Albuquerque Center
Wed 12:02:08 PM 32.2842 -110.5478 274° West 324 373 11,000  Level Albuquerque Center
Wed 12:02:42 PM 32.2925 -110.6022 280° West 306 352 11,000  Level Albuquerque Center
Wed 12:03:09 PM 32.2944 -110.6433 273° West 295 339 11,000 -774 Level Albuquerque Center
Wed 12:03:44 PM 32.3019 -110.6969 279° West 295 339 10,200 -1,400 Descending Albuquerque Center
Wed 12:04:09 PM 32.3039 -110.7342 274° West 279 321 9,600 -1,161 Descending Albuquerque Center
Wed 12:04:46 PM 32.3092 -110.7853 277° West 286 329 9,000 -492 Descending Albuquerque Center
Wed 12:05:10 PM 32.3122 -110.8200 276° West 245 282 9,100  Climbing Albuquerque Center
Wed 12:05:48 PM 32.3181 -110.8622 279° West 268 308 9,000  Descending Albuquerque Center
Wed 12:06:11 PM 32.3231 -110.8978 279° West 239 275 9,100  Climbing Albuquerque Center
Wed 12:06:50 PM 32.3283 -110.9369 279° West 253 291 9,000 -98 Descending Albuquerque Center
Wed 12:07:12 PM 32.3319 -110.9761 276° West 243 280 9,000 -677 Level Albuquerque Center
Wed 12:07:52 PM 32.3389 -111.0142 282° West 243 280 8,300 -1,574 Descending Albuquerque Center
Wed 12:08:13 PM 32.3408 -111.0544 273° West 245 282 7,400 -1,258 Descending Albuquerque Center
Wed 12:08:54 PM 32.3394 -111.1047 268° West 247 284 7,000 -300 Descending Albuquerque Center
Wed 12:09:13 PM 32.3206 -111.1156 206° Southwest 235 270 7,100 -194 Climbing Albuquerque Center
Wed 12:09:56 PM 32.2767 -111.1086 172° South 245 282 6,800 -787 Descending Albuquerque Center
Wed 12:10:14 PM 32.2525 -111.0961 156° South 241 277 6,300 -1,065 Descending Albuquerque Center
Wed 12:10:58 PM 32.2244 -111.0700 142° Southeast 231 266 5,700 -1,082 Descending Albuquerque Center
Wed 12:11:15 PM 32.2119 -111.0517 129° Southeast 209 241 5,200 -1,258 Descending Albuquerque Center
Wed 12:12:00 PM 32.1906 -111.0225 131° Southeast 204 235 4,400 -1,082 Descending Albuquerque Center
Wed 12:12:16 PM 32.1786 -111.0128 145° Southeast 170 196 4,100 -476 Descending Albuquerque Center
Wed 12:13:03 PM 32.1564 -110.9781 127° Southeast 187 215 3,900 -645 Descending Albuquerque Center
Wed 12:14:17 PM 32.1264 -110.9539 146° Southeast 126 145 2,800 -892 Descending Albuquerque Center

Login

Don't have an account? Register now (free) for customized features, flight alerts, and more!